Impacts METAR Board
IDs:

KMCO - Orlando Intl, FL, US

Updated at: 1400 UTC 13 Dec 2018
Potential Impact None Slight Moderate High
Time 13/02Z 13/03Z 13/04Z 13/05Z 13/06Z 13/07Z 13/08Z 13/09Z 13/10Z 13/11Z 13/12Z 13/13Z 13/14Z
Temp56 54 54 56 56 57 57 57 58 58 60 61 63
Dewpt47 47 46 47 47 47 48 49 49 50 51 52 53
Altim30.25 30.25 30.24 30.22 30.20 30.19 30.19 30.19 30.18 30.19 30.19 30.20 30.20
VIS10 10 10 10 10 10 10 10 10 10 10 10 10
CIG270 300 50 50 55 60 60 60 65 65 70 65 70
CoverOVCBKNBKNBKNBKNOVCOVCBKNBKNOVCBKNBKNBKN
FltCatVFRVFRVFRVFRVFRVFRVFRVFRVFRVFRVFRVFRVFR
WX--------------------------
WDir360506060507035036010360304040
WSpd4 6 4 6 5 4 3 4 4 5 7 8 6
WGst-- -- -- -- -- -- -- -- -- -- -- -- --
Raw hourly METARs
KMCO 130153Z 36004KT 10SM FEW040 OVC270 13/08 A3025 RMK AO2 PRESRR SLP243 T01330083
KMCO 130253Z 05006KT 10SM FEW050 BKN300 12/08 A3025 RMK AO2 SLP241 T01220083 53002
KMCO 130353Z 06004KT 10SM BKN050 12/08 A3024 RMK AO2 SLP239 T01220078
KMCO 130453Z 06006KT 10SM BKN050 13/08 A3022 RMK AO2 SLP231 T01330083 402000039
KMCO 130553Z 05005KT 10SM BKN055 13/08 A3020 RMK AO2 SLP226 T01330083 10150 20122 58016
KMCO 130653Z 07004KT 10SM OVC060 14/08 A3019 RMK AO2 SLP222 T01390083
KMCO 130753Z 35003KT 10SM OVC060 14/09 A3019 RMK AO2 SLP220 T01390089
KMCO 130853Z 36004KT 10SM BKN060 BKN250 14/09 A3019 RMK AO2 SLP220 T01390094 55004
KMCO 130953Z 01004KT 10SM BKN065 14/09 A3018 RMK AO2 SLP220 T01440094
KMCO 131053Z 36005KT 10SM BKN065 OVC250 14/10 A3019 RMK AO2 SLP223 T01440100
KMCO 131153Z 03007KT 10SM BKN070 BKN250 16/11 A3019 RMK AO2 SLP222 T01560106 10156 20128 53001
KMCO 131253Z 04008KT 10SM FEW030 BKN065 BKN250 16/11 A3020 RMK AO2 SLP225 T01610111
KMCO 131353Z 04006KT 10SM FEW048 BKN070 17/12 A3020 RMK AO2 SLP227 T01720117



Page loaded:  14:01 UTC  |   06:01 AM Pacific  |   07:01 AM Mountain  |   08:01 AM Central  |   09:01 AM Eastern

 

ADVISORIES

FORECASTS

FORECASTS

OBSERVATIONS

USER TOOLS

ABOUT US